sensor_id;sensor_type;location;lat;lon;timestamp;temperature;humidity
5200;DHT22;2619;47.868;11.892;2023-02-13T00:01:12;1.50;99.90
5200;DHT22;2619;47.868;11.892;2023-02-13T00:03:38;1.50;99.90
5200;DHT22;2619;47.868;11.892;2023-02-13T00:06:04;1.50;99.90
5200;DHT22;2619;47.868;11.892;2023-02-13T00:08:29;1.40;99.90
5200;DHT22;2619;47.868;11.892;2023-02-13T00:10:55;1.40;99.90
5200;DHT22;2619;47.868;11.892;2023-02-13T00:13:21;1.40;99.90
5200;DHT22;2619;47.868;11.892;2023-02-13T00:15:57;1.50;99.90
5200;DHT22;2619;47.868;11.892;2023-02-13T00:18:23;1.40;99.90
5200;DHT22;2619;47.868;11.892;2023-02-13T00:20:57;1.40;99.90
5200;DHT22;2619;47.868;11.892;2023-02-13T00:23:22;1.50;99.90
5200;DHT22;2619;47.868;11.892;2023-02-13T00:25:48;1.50;99.90
5200;DHT22;2619;47.868;11.892;2023-02-13T00:28:14;1.50;99.90
5200;DHT22;2619;47.868;11.892;2023-02-13T00:30:39;1.60;99.90
5200;DHT22;2619;47.868;11.892;2023-02-13T00:33:05;1.70;99.90
5200;DHT22;2619;47.868;11.892;2023-02-13T00:35:30;1.70;99.90
5200;DHT22;2619;47.868;11.892;2023-02-13T00:37:56;1.60;99.90
5200;DHT22;2619;47.868;11.892;2023-02-13T00:40:22;1.60;99.90
5200;DHT22;2619;47.868;11.892;2023-02-13T00:42:47;1.50;99.90
5200;DHT22;2619;47.868;11.892;2023-02-13T00:45:13;1.50;99.90
5200;DHT22;2619;47.868;11.892;2023-02-13T00:47:38;1.40;99.90
5200;DHT22;2619;47.868;11.892;2023-02-13T00:50:04;1.30;99.90
5200;DHT22;2619;47.868;11.892;2023-02-13T00:52:30;1.40;99.90
5200;DHT22;2619;47.868;11.892;2023-02-13T00:54:56;1.30;99.90
5200;DHT22;2619;47.868;11.892;2023-02-13T00:57:21;1.20;99.90
5200;DHT22;2619;47.868;11.892;2023-02-13T00:59:47;1.20;99.90
5200;DHT22;2619;47.868;11.892;2023-02-13T01:02:12;1.20;99.90
5200;DHT22;2619;47.868;11.892;2023-02-13T01:04:38;1.20;99.90
5200;DHT22;2619;47.868;11.892;2023-02-13T01:07:03;1.20;99.90
5200;DHT22;2619;47.868;11.892;2023-02-13T01:09:29;1.20;99.90
5200;DHT22;2619;47.868;11.892;2023-02-13T01:11:55;1.20;99.90
5200;DHT22;2619;47.868;11.892;2023-02-13T01:14:20;1.20;99.90
5200;DHT22;2619;47.868;11.892;2023-02-13T01:16:46;1.20;99.90
5200;DHT22;2619;47.868;11.892;2023-02-13T01:19:11;1.30;99.90
5200;DHT22;2619;47.868;11.892;2023-02-13T01:21:37;1.30;99.90
5200;DHT22;2619;47.868;11.892;2023-02-13T01:24:04;1.20;99.90
5200;DHT22;2619;47.868;11.892;2023-02-13T01:26:29;1.20;99.90
5200;DHT22;2619;47.868;11.892;2023-02-13T01:28:55;1.20;99.90
5200;DHT22;2619;47.868;11.892;2023-02-13T01:31:22;1.20;99.90
5200;DHT22;2619;47.868;11.892;2023-02-13T01:33:48;1.20;99.90
5200;DHT22;2619;47.868;11.892;2023-02-13T01:36:14;1.20;99.90
5200;DHT22;2619;47.868;11.892;2023-02-13T01:38:40;1.30;99.90
5200;DHT22;2619;47.868;11.892;2023-02-13T01:41:06;1.40;99.90
5200;DHT22;2619;47.868;11.892;2023-02-13T01:44:02;1.40;99.90
5200;DHT22;2619;47.868;11.892;2023-02-13T01:46:32;1.40;99.90
5200;DHT22;2619;47.868;11.892;2023-02-13T01:49:21;1.40;99.90
5200;DHT22;2619;47.868;11.892;2023-02-13T01:51:50;1.40;99.90
5200;DHT22;2619;47.868;11.892;2023-02-13T01:54:22;1.40;99.90
5200;DHT22;2619;47.868;11.892;2023-02-13T01:56:58;1.30;99.90
5200;DHT22;2619;47.868;11.892;2023-02-13T01:59:30;1.30;99.90
5200;DHT22;2619;47.868;11.892;2023-02-13T02:01:57;1.30;99.90
5200;DHT22;2619;47.868;11.892;2023-02-13T02:04:32;1.40;99.90
5200;DHT22;2619;47.868;11.892;2023-02-13T02:07:10;1.40;99.90
5200;DHT22;2619;47.868;11.892;2023-02-13T02:09:40;1.30;99.90
5200;DHT22;2619;47.868;11.892;2023-02-13T02:12:36;1.30;99.90
5200;DHT22;2619;47.868;11.892;2023-02-13T02:15:03;1.30;99.90
5200;DHT22;2619;47.868;11.892;2023-02-13T02:17:29;1.30;99.90
5200;DHT22;2619;47.868;11.892;2023-02-13T02:27:56;1.30;99.90
5200;DHT22;2619;47.868;11.892;2023-02-13T02:38:35;1.40;99.90
5200;DHT22;2619;47.868;11.892;2023-02-13T02:41:16;1.30;99.90
5200;DHT22;2619;47.868;11.892;2023-02-13T02:47:17;1.30;99.90
5200;DHT22;2619;47.868;11.892;2023-02-13T03:01:17;1.00;99.90
5200;DHT22;2619;47.868;11.892;2023-02-13T03:04:03;1.10;99.90
5200;DHT22;2619;47.868;11.892;2023-02-13T03:06:58;1.00;99.90
5200;DHT22;2619;47.868;11.892;2023-02-13T03:09:31;1.00;99.90
5200;DHT22;2619;47.868;11.892;2023-02-13T03:12:22;1.00;99.90
5200;DHT22;2619;47.868;11.892;2023-02-13T03:15:07;0.90;99.90
5200;DHT22;2619;47.868;11.892;2023-02-13T03:17:33;0.90;99.90
5200;DHT22;2619;47.868;11.892;2023-02-13T03:20:22;0.90;99.90
5200;DHT22;2619;47.868;11.892;2023-02-13T03:23:51;0.80;99.90
5200;DHT22;2619;47.868;11.892;2023-02-13T03:26:29;0.80;99.90
5200;DHT22;2619;47.868;11.892;2023-02-13T03:35:32;0.80;99.90
5200;DHT22;2619;47.868;11.892;2023-02-13T03:38:37;0.90;99.90
5200;DHT22;2619;47.868;11.892;2023-02-13T03:41:24;0.90;99.90
5200;DHT22;2619;47.868;11.892;2023-02-13T03:46:36;0.90;99.90
5200;DHT22;2619;47.868;11.892;2023-02-13T03:49:05;0.90;99.90
5200;DHT22;2619;47.868;11.892;2023-02-13T03:52:20;0.80;99.90
5200;DHT22;2619;47.868;11.892;2023-02-13T03:55:05;0.80;99.90
5200;DHT22;2619;47.868;11.892;2023-02-13T03:57:57;0.80;99.90
5200;DHT22;2619;47.868;11.892;2023-02-13T04:00:45;0.70;99.90
5200;DHT22;2619;47.868;11.892;2023-02-13T04:05:53;0.70;99.90
5200;DHT22;2619;47.868;11.892;2023-02-13T04:08:20;0.80;99.90
5200;DHT22;2619;47.868;11.892;2023-02-13T04:11:09;0.80;99.90
5200;DHT22;2619;47.868;11.892;2023-02-13T04:13:42;0.80;99.90
5200;DHT22;2619;47.868;11.892;2023-02-13T04:16:22;0.70;99.90
5200;DHT22;2619;47.868;11.892;2023-02-13T04:18:52;0.70;99.90
5200;DHT22;2619;47.868;11.892;2023-02-13T04:21:18;0.60;99.90
5200;DHT22;2619;47.868;11.892;2023-02-13T04:23:44;0.60;99.90
5200;DHT22;2619;47.868;11.892;2023-02-13T04:26:17;0.70;99.90
5200;DHT22;2619;47.868;11.892;2023-02-13T04:28:43;0.60;99.90
5200;DHT22;2619;47.868;11.892;2023-02-13T04:31:09;0.70;99.90
5200;DHT22;2619;47.868;11.892;2023-02-13T04:33:34;0.60;99.90
5200;DHT22;2619;47.868;11.892;2023-02-13T04:36:00;0.60;99.90
5200;DHT22;2619;47.868;11.892;2023-02-13T04:38:25;0.60;99.90
5200;DHT22;2619;47.868;11.892;2023-02-13T04:40:51;0.60;99.90
5200;DHT22;2619;47.868;11.892;2023-02-13T04:43:17;0.50;99.90
5200;DHT22;2619;47.868;11.892;2023-02-13T04:45:42;0.50;99.90
5200;DHT22;2619;47.868;11.892;2023-02-13T04:48:08;0.60;99.90
5200;DHT22;2619;47.868;11.892;2023-02-13T04:50:33;0.60;99.90
5200;DHT22;2619;47.868;11.892;2023-02-13T04:52:59;0.60;99.90
5200;DHT22;2619;47.868;11.892;2023-02-13T04:55:26;0.70;99.90
5200;DHT22;2619;47.868;11.892;2023-02-13T04:57:53;0.70;99.90
5200;DHT22;2619;47.868;11.892;2023-02-13T05:00:20;0.80;99.90
5200;DHT22;2619;47.868;11.892;2023-02-13T05:02:46;0.80;99.90
5200;DHT22;2619;47.868;11.892;2023-02-13T05:05:11;0.80;99.90
5200;DHT22;2619;47.868;11.892;2023-02-13T05:07:37;0.80;99.90
5200;DHT22;2619;47.868;11.892;2023-02-13T05:10:02;0.80;99.90
5200;DHT22;2619;47.868;11.892;2023-02-13T05:12:28;0.80;99.90
5200;DHT22;2619;47.868;11.892;2023-02-13T05:14:54;0.90;99.90
5200;DHT22;2619;47.868;11.892;2023-02-13T05:17:19;0.90;99.90
5200;DHT22;2619;47.868;11.892;2023-02-13T05:19:45;1.00;99.90
5200;DHT22;2619;47.868;11.892;2023-02-13T05:22:10;1.00;99.90
5200;DHT22;2619;47.868;11.892;2023-02-13T05:24:54;1.00;99.90
5200;DHT22;2619;47.868;11.892;2023-02-13T05:27:20;1.10;99.90
5200;DHT22;2619;47.868;11.892;2023-02-13T05:29:46;1.10;99.90
5200;DHT22;2619;47.868;11.892;2023-02-13T05:32:11;1.10;99.90
5200;DHT22;2619;47.868;11.892;2023-02-13T05:34:37;1.20;99.90
5200;DHT22;2619;47.868;11.892;2023-02-13T05:37:02;1.20;99.90
5200;DHT22;2619;47.868;11.892;2023-02-13T05:39:28;1.20;99.90
5200;DHT22;2619;47.868;11.892;2023-02-13T05:41:53;1.30;99.90
5200;DHT22;2619;47.868;11.892;2023-02-13T05:44:19;1.30;99.90
5200;DHT22;2619;47.868;11.892;2023-02-13T05:46:45;1.30;99.90
5200;DHT22;2619;47.868;11.892;2023-02-13T05:49:12;1.20;99.90
5200;DHT22;2619;47.868;11.892;2023-02-13T05:51:38;1.10;99.90
5200;DHT22;2619;47.868;11.892;2023-02-13T05:54:04;1.20;99.90
5200;DHT22;2619;47.868;11.892;2023-02-13T05:56:29;1.20;99.90
5200;DHT22;2619;47.868;11.892;2023-02-13T05:58:55;1.20;99.90
5200;DHT22;2619;47.868;11.892;2023-02-13T06:01:22;1.20;99.90
5200;DHT22;2619;47.868;11.892;2023-02-13T06:03:48;1.20;99.90
5200;DHT22;2619;47.868;11.892;2023-02-13T06:06:14;1.20;99.90
5200;DHT22;2619;47.868;11.892;2023-02-13T06:08:40;1.20;99.90
5200;DHT22;2619;47.868;11.892;2023-02-13T06:11:06;1.20;99.90
5200;DHT22;2619;47.868;11.892;2023-02-13T06:13:32;1.30;99.90
5200;DHT22;2619;47.868;11.892;2023-02-13T06:15:57;1.20;99.90
5200;DHT22;2619;47.868;11.892;2023-02-13T06:18:23;1.20;99.90
5200;DHT22;2619;47.868;11.892;2023-02-13T06:20:49;1.20;99.90
5200;DHT22;2619;47.868;11.892;2023-02-13T06:23:16;1.10;99.90
5200;DHT22;2619;47.868;11.892;2023-02-13T06:25:42;1.00;99.90
5200;DHT22;2619;47.868;11.892;2023-02-13T06:28:07;1.00;99.90
5200;DHT22;2619;47.868;11.892;2023-02-13T06:30:33;1.00;99.90
5200;DHT22;2619;47.868;11.892;2023-02-13T06:32:59;1.00;99.90
5200;DHT22;2619;47.868;11.892;2023-02-13T06:35:25;1.10;99.90
5200;DHT22;2619;47.868;11.892;2023-02-13T06:37:51;1.10;99.90
5200;DHT22;2619;47.868;11.892;2023-02-13T06:40:17;1.10;99.90
5200;DHT22;2619;47.868;11.892;2023-02-13T06:42:43;1.10;99.90
5200;DHT22;2619;47.868;11.892;2023-02-13T06:45:10;1.10;99.90
5200;DHT22;2619;47.868;11.892;2023-02-13T06:47:35;1.10;99.90
5200;DHT22;2619;47.868;11.892;2023-02-13T06:50:05;1.10;99.90
5200;DHT22;2619;47.868;11.892;2023-02-13T06:52:31;1.10;99.90
5200;DHT22;2619;47.868;11.892;2023-02-13T06:54:56;1.10;99.90
5200;DHT22;2619;47.868;11.892;2023-02-13T06:57:22;1.10;99.90
5200;DHT22;2619;47.868;11.892;2023-02-13T06:59:48;1.00;99.90
5200;DHT22;2619;47.868;11.892;2023-02-13T07:02:13;1.10;99.90
5200;DHT22;2619;47.868;11.892;2023-02-13T07:04:39;1.10;99.90
5200;DHT22;2619;47.868;11.892;2023-02-13T07:07:05;1.10;99.90
5200;DHT22;2619;47.868;11.892;2023-02-13T07:09:31;1.10;99.90
5200;DHT22;2619;47.868;11.892;2023-02-13T07:11:57;1.10;99.90
5200;DHT22;2619;47.868;11.892;2023-02-13T07:14:22;1.10;99.90
5200;DHT22;2619;47.868;11.892;2023-02-13T07:16:48;1.20;99.90
5200;DHT22;2619;47.868;11.892;2023-02-13T07:19:14;1.30;99.90
5200;DHT22;2619;47.868;11.892;2023-02-13T07:21:39;1.30;99.90
5200;DHT22;2619;47.868;11.892;2023-02-13T07:24:05;1.30;99.90
5200;DHT22;2619;47.868;11.892;2023-02-13T07:26:31;1.30;99.90
5200;DHT22;2619;47.868;11.892;2023-02-13T07:28:56;1.30;99.90
5200;DHT22;2619;47.868;11.892;2023-02-13T07:31:22;1.30;99.90
5200;DHT22;2619;47.868;11.892;2023-02-13T07:33:48;1.30;99.90
5200;DHT22;2619;47.868;11.892;2023-02-13T07:36:14;1.30;99.90
5200;DHT22;2619;47.868;11.892;2023-02-13T07:38:39;1.30;99.90
5200;DHT22;2619;47.868;11.892;2023-02-13T07:41:05;1.30;99.90
5200;DHT22;2619;47.868;11.892;2023-02-13T07:43:31;1.40;99.90
5200;DHT22;2619;47.868;11.892;2023-02-13T07:45:59;1.50;99.90
5200;DHT22;2619;47.868;11.892;2023-02-13T07:48:25;1.50;99.90
5200;DHT22;2619;47.868;11.892;2023-02-13T07:50:58;1.50;99.90
5200;DHT22;2619;47.868;11.892;2023-02-13T07:53:24;1.60;99.90
5200;DHT22;2619;47.868;11.892;2023-02-13T07:55:49;1.60;99.90
5200;DHT22;2619;47.868;11.892;2023-02-13T07:58:15;1.60;99.90
5200;DHT22;2619;47.868;11.892;2023-02-13T08:00:41;1.70;99.90
5200;DHT22;2619;47.868;11.892;2023-02-13T08:03:06;1.80;99.90
5200;DHT22;2619;47.868;11.892;2023-02-13T08:05:32;1.90;99.90
5200;DHT22;2619;47.868;11.892;2023-02-13T08:07:58;1.90;99.90
5200;DHT22;2619;47.868;11.892;2023-02-13T08:10:24;1.80;99.90
5200;DHT22;2619;47.868;11.892;2023-02-13T08:13:08;1.90;99.90
5200;DHT22;2619;47.868;11.892;2023-02-13T08:15:34;1.90;99.90
5200;DHT22;2619;47.868;11.892;2023-02-13T08:18:00;2.00;99.90
5200;DHT22;2619;47.868;11.892;2023-02-13T08:20:26;2.00;99.90
5200;DHT22;2619;47.868;11.892;2023-02-13T08:22:52;2.10;99.90
5200;DHT22;2619;47.868;11.892;2023-02-13T08:25:17;2.10;99.90
5200;DHT22;2619;47.868;11.892;2023-02-13T08:27:44;2.10;99.90
5200;DHT22;2619;47.868;11.892;2023-02-13T08:30:10;2.20;99.90
5200;DHT22;2619;47.868;11.892;2023-02-13T08:32:37;2.20;99.90
5200;DHT22;2619;47.868;11.892;2023-02-13T08:35:02;2.30;99.90
5200;DHT22;2619;47.868;11.892;2023-02-13T08:37:28;2.30;99.90
5200;DHT22;2619;47.868;11.892;2023-02-13T08:39:54;2.40;99.90
5200;DHT22;2619;47.868;11.892;2023-02-13T08:42:19;2.40;99.90
5200;DHT22;2619;47.868;11.892;2023-02-13T08:44:45;2.50;99.90
5200;DHT22;2619;47.868;11.892;2023-02-13T08:47:10;2.50;99.90
5200;DHT22;2619;47.868;11.892;2023-02-13T08:49:36;2.50;99.90
5200;DHT22;2619;47.868;11.892;2023-02-13T08:52:02;2.50;99.90
5200;DHT22;2619;47.868;11.892;2023-02-13T08:54:28;2.40;99.90
5200;DHT22;2619;47.868;11.892;2023-02-13T08:56:54;2.40;99.90
5200;DHT22;2619;47.868;11.892;2023-02-13T08:59:20;2.50;99.90
5200;DHT22;2619;47.868;11.892;2023-02-13T09:01:46;2.60;99.90
5200;DHT22;2619;47.868;11.892;2023-02-13T09:04:11;2.60;99.90
5200;DHT22;2619;47.868;11.892;2023-02-13T09:06:40;2.70;99.90
5200;DHT22;2619;47.868;11.892;2023-02-13T09:09:06;2.60;99.90
5200;DHT22;2619;47.868;11.892;2023-02-13T09:11:31;2.60;99.90
5200;DHT22;2619;47.868;11.892;2023-02-13T09:13:57;2.70;99.90
5200;DHT22;2619;47.868;11.892;2023-02-13T09:16:22;2.70;99.90
5200;DHT22;2619;47.868;11.892;2023-02-13T09:18:49;2.80;99.90
5200;DHT22;2619;47.868;11.892;2023-02-13T09:21:15;2.90;99.90
5200;DHT22;2619;47.868;11.892;2023-02-13T09:23:41;3.00;99.90
5200;DHT22;2619;47.868;11.892;2023-02-13T09:26:09;3.20;99.90
5200;DHT22;2619;47.868;11.892;2023-02-13T09:28:36;3.30;99.90
5200;DHT22;2619;47.868;11.892;2023-02-13T09:31:07;3.40;99.90
5200;DHT22;2619;47.868;11.892;2023-02-13T09:33:33;3.40;99.90
5200;DHT22;2619;47.868;11.892;2023-02-13T09:36:09;3.50;99.90
5200;DHT22;2619;47.868;11.892;2023-02-13T09:38:35;3.50;99.90
5200;DHT22;2619;47.868;11.892;2023-02-13T09:41:15;3.60;99.90
5200;DHT22;2619;47.868;11.892;2023-02-13T09:43:44;3.60;99.90
5200;DHT22;2619;47.868;11.892;2023-02-13T09:46:22;3.60;99.90
5200;DHT22;2619;47.868;11.892;2023-02-13T09:48:54;3.70;99.90
5200;DHT22;2619;47.868;11.892;2023-02-13T09:51:21;3.20;99.90
5200;DHT22;2619;47.868;11.892;2023-02-13T09:53:56;3.30;99.90
5200;DHT22;2619;47.868;11.892;2023-02-13T10:07:41;3.20;99.90
5200;DHT22;2619;47.868;11.892;2023-02-13T10:18:08;3.50;99.90
5200;DHT22;2619;47.868;11.892;2023-02-13T10:20:56;3.70;99.90
5200;DHT22;2619;47.868;11.892;2023-02-13T10:23:36;4.00;99.90
5200;DHT22;2619;47.868;11.892;2023-02-13T10:26:07;4.40;99.90
5200;DHT22;2619;47.868;11.892;2023-02-13T10:29:03;4.40;99.90
5200;DHT22;2619;47.868;11.892;2023-02-13T10:31:51;4.10;99.90
5200;DHT22;2619;47.868;11.892;2023-02-13T10:34:21;4.00;99.90
5200;DHT22;2619;47.868;11.892;2023-02-13T10:36:49;4.20;99.90
5200;DHT22;2619;47.868;11.892;2023-02-13T10:39:21;4.50;99.90
5200;DHT22;2619;47.868;11.892;2023-02-13T10:41:54;4.70;99.90
5200;DHT22;2619;47.868;11.892;2023-02-13T10:52:53;4.70;99.90
5200;DHT22;2619;47.868;11.892;2023-02-13T10:55:30;4.60;99.90
5200;DHT22;2619;47.868;11.892;2023-02-13T10:58:17;4.70;99.90
5200;DHT22;2619;47.868;11.892;2023-02-13T11:01:18;4.70;99.90
5200;DHT22;2619;47.868;11.892;2023-02-13T11:03:44;5.00;99.90
5200;DHT22;2619;47.868;11.892;2023-02-13T11:06:14;5.00;99.90
5200;DHT22;2619;47.868;11.892;2023-02-13T11:08:44;5.10;99.90
5200;DHT22;2619;47.868;11.892;2023-02-13T11:11:30;5.20;99.90
5200;DHT22;2619;47.868;11.892;2023-02-13T11:14:17;5.10;99.90
5200;DHT22;2619;47.868;11.892;2023-02-13T11:16:58;5.10;99.90
5200;DHT22;2619;47.868;11.892;2023-02-13T11:19:36;5.10;99.90
5200;DHT22;2619;47.868;11.892;2023-02-13T11:22:04;4.70;99.90
5200;DHT22;2619;47.868;11.892;2023-02-13T11:24:30;5.00;99.90
5200;DHT22;2619;47.868;11.892;2023-02-13T11:27:07;5.30;99.90
5200;DHT22;2619;47.868;11.892;2023-02-13T11:29:54;5.50;99.90
5200;DHT22;2619;47.868;11.892;2023-02-13T11:32:25;5.70;99.90
5200;DHT22;2619;47.868;11.892;2023-02-13T11:34:51;5.30;99.90
5200;DHT22;2619;47.868;11.892;2023-02-13T11:39:53;4.50;99.90
5200;DHT22;2619;47.868;11.892;2023-02-13T11:42:31;4.50;99.90
5200;DHT22;2619;47.868;11.892;2023-02-13T11:47:42;4.40;99.90
5200;DHT22;2619;47.868;11.892;2023-02-13T11:50:37;4.70;99.90
5200;DHT22;2619;47.868;11.892;2023-02-13T11:53:15;5.30;99.90
5200;DHT22;2619;47.868;11.892;2023-02-13T11:55:44;5.50;99.90
5200;DHT22;2619;47.868;11.892;2023-02-13T11:58:25;5.50;99.90
5200;DHT22;2619;47.868;11.892;2023-02-13T12:04:02;5.30;99.90
5200;DHT22;2619;47.868;11.892;2023-02-13T12:06:28;4.80;99.90
5200;DHT22;2619;47.868;11.892;2023-02-13T12:08:54;4.40;99.90
5200;DHT22;2619;47.868;11.892;2023-02-13T12:11:23;4.20;99.90
5200;DHT22;2619;47.868;11.892;2023-02-13T12:13:52;4.20;99.90
5200;DHT22;2619;47.868;11.892;2023-02-13T12:16:38;4.20;99.90
5200;DHT22;2619;47.868;11.892;2023-02-13T12:19:10;4.20;99.90
5200;DHT22;2619;47.868;11.892;2023-02-13T12:32:19;4.40;99.90
5200;DHT22;2619;47.868;11.892;2023-02-13T12:40:38;4.90;99.90
5200;DHT22;2619;47.868;11.892;2023-02-13T12:48:38;4.70;99.90
5200;DHT22;2619;47.868;11.892;2023-02-13T13:08:36;4.80;99.90
5200;DHT22;2619;47.868;11.892;2023-02-13T13:13:53;4.90;99.90
5200;DHT22;2619;47.868;11.892;2023-02-13T13:22:04;5.30;99.90
5200;DHT22;2619;47.868;11.892;2023-02-13T13:27:01;5.30;99.90
5200;DHT22;2619;47.868;11.892;2023-02-13T13:29:45;5.30;99.90
5200;DHT22;2619;47.868;11.892;2023-02-13T13:32:16;5.40;99.90
5200;DHT22;2619;47.868;11.892;2023-02-13T13:34:44;5.40;99.90
5200;DHT22;2619;47.868;11.892;2023-02-13T13:37:19;5.40;99.90
5200;DHT22;2619;47.868;11.892;2023-02-13T13:50:54;5.50;99.90
5200;DHT22;2619;47.868;11.892;2023-02-13T13:53:20;5.50;99.90
5200;DHT22;2619;47.868;11.892;2023-02-13T13:58:23;5.60;99.90
5200;DHT22;2619;47.868;11.892;2023-02-13T14:03:41;5.90;99.90
5200;DHT22;2619;47.868;11.892;2023-02-13T14:06:14;6.00;99.90
5200;DHT22;2619;47.868;11.892;2023-02-13T14:11:23;6.50;99.90
5200;DHT22;2619;47.868;11.892;2023-02-13T14:13:50;6.70;99.90
5200;DHT22;2619;47.868;11.892;2023-02-13T14:16:41;6.80;99.90
5200;DHT22;2619;47.868;11.892;2023-02-13T14:19:33;6.80;99.90
5200;DHT22;2619;47.868;11.892;2023-02-13T14:24:53;6.50;99.90
5200;DHT22;2619;47.868;11.892;2023-02-13T14:27:23;6.40;99.90
5200;DHT22;2619;47.868;11.892;2023-02-13T14:29:49;6.20;99.90
5200;DHT22;2619;47.868;11.892;2023-02-13T14:32:36;6.10;99.90
5200;DHT22;2619;47.868;11.892;2023-02-13T14:35:13;5.70;99.90
5200;DHT22;2619;47.868;11.892;2023-02-13T14:37:56;5.70;99.90
5200;DHT22;2619;47.868;11.892;2023-02-13T14:40:42;5.50;99.90
5200;DHT22;2619;47.868;11.892;2023-02-13T14:43:27;5.50;99.90
5200;DHT22;2619;47.868;11.892;2023-02-13T14:48:30;5.60;99.90
5200;DHT22;2619;47.868;11.892;2023-02-13T14:50:57;5.50;99.90
5200;DHT22;2619;47.868;11.892;2023-02-13T14:53:44;5.40;99.90
5200;DHT22;2619;47.868;11.892;2023-02-13T14:56:14;5.00;99.90
5200;DHT22;2619;47.868;11.892;2023-02-13T14:58:52;5.00;99.90
5200;DHT22;2619;47.868;11.892;2023-02-13T15:01:29;5.00;99.90
5200;DHT22;2619;47.868;11.892;2023-02-13T15:04:10;4.90;99.90
5200;DHT22;2619;47.868;11.892;2023-02-13T15:06:44;4.80;99.90
5200;DHT22;2619;47.868;11.892;2023-02-13T15:09:34;4.70;99.90
5200;DHT22;2619;47.868;11.892;2023-02-13T15:12:03;4.80;99.90
5200;DHT22;2619;47.868;11.892;2023-02-13T15:14:33;4.50;99.90
5200;DHT22;2619;47.868;11.892;2023-02-13T15:17:21;4.20;99.90
5200;DHT22;2619;47.868;11.892;2023-02-13T15:19:54;4.10;99.90
5200;DHT22;2619;47.868;11.892;2023-02-13T15:22:44;4.00;99.90
5200;DHT22;2619;47.868;11.892;2023-02-13T15:25:32;3.80;99.90
5200;DHT22;2619;47.868;11.892;2023-02-13T15:27:59;3.60;99.90
5200;DHT22;2619;47.868;11.892;2023-02-13T15:30:31;3.60;99.90
5200;DHT22;2619;47.868;11.892;2023-02-13T15:33:16;3.60;99.90
5200;DHT22;2619;47.868;11.892;2023-02-13T15:35:43;3.50;99.90
5200;DHT22;2619;47.868;11.892;2023-02-13T15:38:30;3.30;99.90
5200;DHT22;2619;47.868;11.892;2023-02-13T15:41:09;3.30;99.90
5200;DHT22;2619;47.868;11.892;2023-02-13T15:43:44;3.20;99.90
5200;DHT22;2619;47.868;11.892;2023-02-13T15:46:34;3.10;99.90
5200;DHT22;2619;47.868;11.892;2023-02-13T15:49:11;3.10;99.90
5200;DHT22;2619;47.868;11.892;2023-02-13T15:51:38;3.00;99.90
5200;DHT22;2619;47.868;11.892;2023-02-13T15:56:48;2.80;99.90
5200;DHT22;2619;47.868;11.892;2023-02-13T15:59:16;2.70;99.90
5200;DHT22;2619;47.868;11.892;2023-02-13T16:01:43;2.70;99.90
5200;DHT22;2619;47.868;11.892;2023-02-13T16:04:12;2.80;99.90
5200;DHT22;2619;47.868;11.892;2023-02-13T16:06:41;2.80;99.90
5200;DHT22;2619;47.868;11.892;2023-02-13T16:12:21;2.60;99.90
5200;DHT22;2619;47.868;11.892;2023-02-13T16:15:00;2.60;99.90
5200;DHT22;2619;47.868;11.892;2023-02-13T16:17:36;2.50;99.90
5200;DHT22;2619;47.868;11.892;2023-02-13T16:20:05;2.40;99.90
5200;DHT22;2619;47.868;11.892;2023-02-13T16:22:44;2.40;99.90
5200;DHT22;2619;47.868;11.892;2023-02-13T16:27:38;2.20;99.90
5200;DHT22;2619;47.868;11.892;2023-02-13T16:30:18;2.20;99.90
5200;DHT22;2619;47.868;11.892;2023-02-13T16:32:47;2.20;99.90
5200;DHT22;2619;47.868;11.892;2023-02-13T16:35:30;2.20;99.90
5200;DHT22;2619;47.868;11.892;2023-02-13T16:37:59;2.30;99.90
5200;DHT22;2619;47.868;11.892;2023-02-13T16:40:42;2.30;99.90
5200;DHT22;2619;47.868;11.892;2023-02-13T16:43:46;2.30;99.90
5200;DHT22;2619;47.868;11.892;2023-02-13T16:54:01;2.60;99.90
5200;DHT22;2619;47.868;11.892;2023-02-13T16:56:48;2.60;99.90
5200;DHT22;2619;47.868;11.892;2023-02-13T16:59:25;2.60;99.90
5200;DHT22;2619;47.868;11.892;2023-02-13T17:04:36;2.20;99.90
5200;DHT22;2619;47.868;11.892;2023-02-13T17:07:04;2.20;99.90
5200;DHT22;2619;47.868;11.892;2023-02-13T17:09:30;2.20;99.90
5200;DHT22;2619;47.868;11.892;2023-02-13T17:11:55;2.20;99.90
5200;DHT22;2619;47.868;11.892;2023-02-13T17:14:21;2.20;99.90
5200;DHT22;2619;47.868;11.892;2023-02-13T17:16:47;2.10;99.90
5200;DHT22;2619;47.868;11.892;2023-02-13T17:19:12;2.20;99.90
5200;DHT22;2619;47.868;11.892;2023-02-13T17:21:38;2.30;99.90
5200;DHT22;2619;47.868;11.892;2023-02-13T17:24:04;2.10;99.90
5200;DHT22;2619;47.868;11.892;2023-02-13T17:26:30;2.10;99.90
5200;DHT22;2619;47.868;11.892;2023-02-13T17:28:56;2.00;99.90
5200;DHT22;2619;47.868;11.892;2023-02-13T17:31:22;2.00;99.90
5200;DHT22;2619;47.868;11.892;2023-02-13T17:33:47;1.90;99.90
5200;DHT22;2619;47.868;11.892;2023-02-13T17:36:13;2.00;99.90
5200;DHT22;2619;47.868;11.892;2023-02-13T17:38:38;2.00;99.90
5200;DHT22;2619;47.868;11.892;2023-02-13T17:41:14;2.20;99.90
5200;DHT22;2619;47.868;11.892;2023-02-13T17:43:40;2.30;99.90
5200;DHT22;2619;47.868;11.892;2023-02-13T17:46:05;2.20;99.90
5200;DHT22;2619;47.868;11.892;2023-02-13T17:48:31;2.10;99.90
5200;DHT22;2619;47.868;11.892;2023-02-13T17:50:57;2.10;99.90
5200;DHT22;2619;47.868;11.892;2023-02-13T17:53:26;2.10;99.90
5200;DHT22;2619;47.868;11.892;2023-02-13T17:55:52;2.10;99.90
5200;DHT22;2619;47.868;11.892;2023-02-13T17:58:17;2.20;99.90
5200;DHT22;2619;47.868;11.892;2023-02-13T18:00:43;2.20;99.90
5200;DHT22;2619;47.868;11.892;2023-02-13T18:03:10;2.20;99.90
5200;DHT22;2619;47.868;11.892;2023-02-13T18:05:36;2.20;99.90
5200;DHT22;2619;47.868;11.892;2023-02-13T18:08:02;2.10;99.90
5200;DHT22;2619;47.868;11.892;2023-02-13T18:10:30;2.00;99.90
5200;DHT22;2619;47.868;11.892;2023-02-13T18:13:03;1.90;99.90
5200;DHT22;2619;47.868;11.892;2023-02-13T18:15:33;1.90;99.90
5200;DHT22;2619;47.868;11.892;2023-02-13T18:17:59;1.70;99.90
5200;DHT22;2619;47.868;11.892;2023-02-13T18:20:25;1.70;99.90
5200;DHT22;2619;47.868;11.892;2023-02-13T18:22:50;1.80;99.90
5200;DHT22;2619;47.868;11.892;2023-02-13T18:25:17;1.80;99.90
5200;DHT22;2619;47.868;11.892;2023-02-13T18:27:43;1.60;99.90
5200;DHT22;2619;47.868;11.892;2023-02-13T18:30:11;1.60;99.90
5200;DHT22;2619;47.868;11.892;2023-02-13T18:32:37;1.60;99.90
5200;DHT22;2619;47.868;11.892;2023-02-13T18:35:03;1.60;99.90
5200;DHT22;2619;47.868;11.892;2023-02-13T18:37:29;1.50;99.90
5200;DHT22;2619;47.868;11.892;2023-02-13T18:39:55;1.60;99.90
5200;DHT22;2619;47.868;11.892;2023-02-13T18:42:20;1.60;99.90
5200;DHT22;2619;47.868;11.892;2023-02-13T18:44:46;1.70;99.90
5200;DHT22;2619;47.868;11.892;2023-02-13T18:47:12;1.80;99.90
5200;DHT22;2619;47.868;11.892;2023-02-13T18:49:37;1.80;99.90
5200;DHT22;2619;47.868;11.892;2023-02-13T18:52:03;1.80;99.90
5200;DHT22;2619;47.868;11.892;2023-02-13T18:54:29;1.80;99.90
5200;DHT22;2619;47.868;11.892;2023-02-13T18:56:54;1.70;99.90
5200;DHT22;2619;47.868;11.892;2023-02-13T18:59:20;1.70;99.90
5200;DHT22;2619;47.868;11.892;2023-02-13T19:01:47;1.70;99.90
5200;DHT22;2619;47.868;11.892;2023-02-13T19:04:13;1.70;99.90
5200;DHT22;2619;47.868;11.892;2023-02-13T19:06:39;1.60;99.90
5200;DHT22;2619;47.868;11.892;2023-02-13T19:09:05;1.70;99.90
5200;DHT22;2619;47.868;11.892;2023-02-13T19:11:31;1.70;99.90
5200;DHT22;2619;47.868;11.892;2023-02-13T19:13:59;1.80;99.90
5200;DHT22;2619;47.868;11.892;2023-02-13T19:16:29;1.60;99.90